createdAt,value
2023-02-04T00:00:42.229Z,2.37
2023-02-04T00:03:10.965Z,1.23
2023-02-04T00:05:39.629Z,2.40
2023-02-04T00:08:11.054Z,2.20
2023-02-04T00:10:39.648Z,2.30
2023-02-04T00:13:09.566Z,4.73
2023-02-04T00:15:38.149Z,1.50
2023-02-04T00:18:07.272Z,2.63
2023-02-04T00:20:35.771Z,1.63
2023-02-04T00:23:04.327Z,1.53
2023-02-04T00:25:32.908Z,1.70
2023-02-04T00:28:01.523Z,1.37
2023-02-04T00:30:31.882Z,1.67
2023-02-04T00:33:01.821Z,1.70
2023-02-04T00:35:30.424Z,0.73
2023-02-04T00:37:59.015Z,3.37
2023-02-04T00:40:27.653Z,2.43
2023-02-04T00:42:56.138Z,2.80
2023-02-04T00:45:24.784Z,1.37
2023-02-04T00:47:54.744Z,3.13
2023-02-04T00:50:23.320Z,1.47
2023-02-04T00:52:52.686Z,2.20
2023-02-04T00:55:21.245Z,0.60
2023-02-04T00:57:49.867Z,2.43
2023-02-04T01:00:19.677Z,1.37
2023-02-04T01:02:48.272Z,1.07
2023-02-04T01:05:18.287Z,2.40
2023-02-04T01:07:46.866Z,2.00
2023-02-04T01:10:16.245Z,3.60
2023-02-04T01:12:45.076Z,1.70
2023-02-04T01:15:13.744Z,2.20
2023-02-04T01:17:42.692Z,1.03
2023-02-04T01:20:11.795Z,1.17
2023-02-04T01:22:41.806Z,2.23
2023-02-04T01:25:10.429Z,1.13
2023-02-04T01:27:39.036Z,0.77
2023-02-04T01:30:08.081Z,1.40
2023-02-04T01:32:36.634Z,1.43
2023-02-04T01:35:05.148Z,1.43
2023-02-04T01:37:33.727Z,2.10
2023-02-04T01:40:03.680Z,2.07
2023-02-04T01:42:32.253Z,1.30
2023-02-04T01:45:00.891Z,1.43
2023-02-04T01:47:29.491Z,1.63
2023-02-04T01:49:58.069Z,1.73
2023-02-04T01:52:27.196Z,4.37
2023-02-04T01:54:55.739Z,1.23
2023-02-04T01:57:25.739Z,2.00
2023-02-04T01:59:56.634Z,1.67
2023-02-04T02:02:41.985Z,1.83
2023-02-04T02:05:11.901Z,1.93
2023-02-04T02:07:41.083Z,2.40
2023-02-04T02:10:12.641Z,1.33
2023-02-04T02:12:43.057Z,0.87
2023-02-04T02:15:12.156Z,2.00
2023-02-04T02:17:40.950Z,0.60
2023-02-04T02:20:10.545Z,3.57
2023-02-04T02:22:41.774Z,0.60
2023-02-04T02:25:13.576Z,1.53
2023-02-04T02:27:42.587Z,0.60
2023-02-04T02:30:12.403Z,3.23
2023-02-04T02:32:41.078Z,2.40
2023-02-04T02:35:10.001Z,1.10
2023-02-04T02:37:38.544Z,1.70
2023-02-04T02:40:07.794Z,1.47
2023-02-04T02:42:38.065Z,4.17
2023-02-04T02:45:08.985Z,1.90
2023-02-04T02:47:37.497Z,1.83
2023-02-04T02:50:06.185Z,0.60
2023-02-04T02:52:34.775Z,0.80
2023-02-04T02:55:03.291Z,0.90
2023-02-04T02:57:31.733Z,1.00
2023-02-04T03:00:01.664Z,1.80
2023-02-04T03:02:30.192Z,0.90
2023-02-04T03:05:00.886Z,1.37
2023-02-04T03:07:29.514Z,1.50
2023-02-04T03:09:58.664Z,2.07
2023-02-04T03:12:27.355Z,0.80
2023-02-04T03:14:55.862Z,1.80
2023-02-04T03:17:25.853Z,0.80
2023-02-04T03:19:54.371Z,0.93
2023-02-04T03:22:22.929Z,4.47
2023-02-04T03:24:51.720Z,0.60
2023-02-04T03:27:20.821Z,0.60
2023-02-04T03:29:49.392Z,0.50
2023-02-04T03:32:18.325Z,0.60
2023-02-04T03:34:48.347Z,0.90
2023-02-04T03:37:16.921Z,1.00
2023-02-04T03:39:45.435Z,4.83
2023-02-04T03:42:13.973Z,0.50
2023-02-04T03:44:42.468Z,0.50
2023-02-04T03:47:11.188Z,0.50
2023-02-04T03:49:39.711Z,0.60
2023-02-04T03:52:09.718Z,0.60
2023-02-04T03:54:38.271Z,3.90
2023-02-04T03:57:06.799Z,0.50
2023-02-04T03:59:35.358Z,0.60
2023-02-04T04:02:03.964Z,2.50
2023-02-04T04:04:32.472Z,1.10
2023-02-04T04:07:00.992Z,0.50
2023-02-04T04:09:30.875Z,0.70
2023-02-04T04:11:59.477Z,1.33
2023-02-04T04:14:28.220Z,0.90
2023-02-04T04:16:56.696Z,0.60
2023-02-04T04:19:25.651Z,0.60
2023-02-04T04:21:54.136Z,0.70
2023-02-04T04:24:22.661Z,2.60
2023-02-04T04:26:52.937Z,0.60
2023-02-04T04:29:21.460Z,0.60
2023-02-04T04:31:50.078Z,0.57
2023-02-04T04:34:18.590Z,0.60
2023-02-04T04:36:47.142Z,0.50
2023-02-04T04:39:15.743Z,0.50
2023-02-04T04:41:44.213Z,0.80
2023-02-04T04:44:14.181Z,0.60
2023-02-04T04:46:42.839Z,1.87
2023-02-04T04:49:11.394Z,0.50
2023-02-04T04:51:39.876Z,0.60
2023-02-04T04:54:08.667Z,0.60
2023-02-04T04:56:37.235Z,0.60
2023-02-04T04:59:06.175Z,1.13
2023-02-04T05:01:36.149Z,1.00
2023-02-04T05:04:05.086Z,0.50
2023-02-04T05:06:33.661Z,0.50
2023-02-04T05:09:02.178Z,2.53
2023-02-04T05:11:30.999Z,1.43
2023-02-04T05:13:59.423Z,0.63
2023-02-04T05:16:28.171Z,0.70
2023-02-04T05:18:58.133Z,0.60
2023-02-04T05:21:26.678Z,1.43
2023-02-04T05:23:55.316Z,2.33
2023-02-04T05:26:30.301Z,0.50
2023-02-04T05:29:00.550Z,0.80
2023-02-04T05:31:29.361Z,1.73
2023-02-04T05:33:59.322Z,0.60
2023-02-04T05:36:27.845Z,1.23
2023-02-04T05:38:56.406Z,0.60
2023-02-04T05:41:25.136Z,1.13
2023-02-04T05:43:53.650Z,3.80
2023-02-04T05:46:22.099Z,1.27
2023-02-04T05:48:50.614Z,0.67
2023-02-04T05:51:20.539Z,0.60
2023-02-04T05:53:49.742Z,0.97
2023-02-04T05:56:18.320Z,0.90
2023-02-04T05:58:47.172Z,0.50
2023-02-04T06:01:15.686Z,1.17
2023-02-04T06:03:44.279Z,0.73
2023-02-04T06:06:12.797Z,0.93
2023-02-04T06:08:42.676Z,0.60
2023-02-04T06:11:11.248Z,0.60
2023-02-04T06:13:39.791Z,0.60
2023-02-04T06:16:08.732Z,0.60
2023-02-04T06:18:37.284Z,0.73
2023-02-04T06:21:05.885Z,0.90
2023-02-04T06:23:34.756Z,2.17
2023-02-04T06:26:04.892Z,0.87
2023-02-04T06:28:33.339Z,1.80
2023-02-04T06:31:01.963Z,0.90
2023-02-04T06:33:30.603Z,3.07
2023-02-04T06:35:59.153Z,1.10
2023-02-04T06:38:27.698Z,1.83
2023-02-04T06:40:56.197Z,0.60
2023-02-04T06:43:27.672Z,0.83
2023-02-04T06:45:56.290Z,1.37
2023-02-04T06:48:24.836Z,0.60
2023-02-04T06:50:53.404Z,0.60
2023-02-04T06:53:21.972Z,0.70
2023-02-04T06:55:50.472Z,1.70
2023-02-04T06:58:19.055Z,0.60
2023-02-04T07:00:48.943Z,0.60
2023-02-04T07:03:17.389Z,0.60
2023-02-04T07:05:45.900Z,0.60
2023-02-04T07:08:14.421Z,0.50
2023-02-04T07:10:42.904Z,0.50
2023-02-04T07:13:11.398Z,0.50
2023-02-04T07:15:39.914Z,2.33
2023-02-04T07:18:09.901Z,0.60
2023-02-04T07:20:38.366Z,0.60
2023-02-04T07:23:06.893Z,0.70
2023-02-04T07:25:35.398Z,0.50
2023-02-04T07:28:05.671Z,2.43
2023-02-04T07:30:34.707Z,0.60
2023-02-04T07:33:03.583Z,0.50
2023-02-04T07:35:33.527Z,0.90
2023-02-04T07:38:01.986Z,0.73
2023-02-04T07:40:30.967Z,0.63
2023-02-04T07:42:59.671Z,1.07
2023-02-04T07:45:28.426Z,0.60
2023-02-04T07:47:57.019Z,0.60
2023-02-04T07:50:25.621Z,0.70
2023-02-04T07:52:55.669Z,0.60
2023-02-04T07:55:24.263Z,3.50
2023-02-04T07:57:52.753Z,0.60
2023-02-04T08:00:21.620Z,0.60
2023-02-04T08:02:50.240Z,0.67
2023-02-04T08:05:19.013Z,2.17
2023-02-04T08:07:47.612Z,0.77
2023-02-04T08:10:17.586Z,0.70
2023-02-04T08:12:46.174Z,0.50
2023-02-04T08:15:14.724Z,1.43
2023-02-04T08:17:43.274Z,0.60
2023-02-04T08:20:12.923Z,1.97
2023-02-04T08:22:41.480Z,0.50
2023-02-04T08:25:11.427Z,0.70
2023-02-04T08:27:41.375Z,0.60
2023-02-04T08:30:10.791Z,0.60
2023-02-04T08:32:39.913Z,0.50
2023-02-04T08:35:08.892Z,0.50
2023-02-04T08:37:37.373Z,0.93
2023-02-04T08:40:06.231Z,0.77
2023-02-04T08:42:35.626Z,2.47
2023-02-04T08:45:05.975Z,0.50
2023-02-04T08:47:34.602Z,0.60
2023-02-04T08:53:01.928Z,0.57
2023-02-04T08:55:33.485Z,0.50
2023-02-04T08:58:03.146Z,2.10
2023-02-04T09:00:33.470Z,3.10
2023-02-04T09:03:02.171Z,0.50
2023-02-04T09:05:30.778Z,0.63
2023-02-04T09:07:59.392Z,0.50
2023-02-04T09:10:28.018Z,0.60
2023-02-04T09:12:56.525Z,3.73
2023-02-04T09:15:25.368Z,0.60
2023-02-04T09:18:01.506Z,0.87
2023-02-04T09:20:30.542Z,0.93
2023-02-04T09:22:59.266Z,2.00
2023-02-04T09:25:27.793Z,0.60
2023-02-04T09:27:56.293Z,0.60
2023-02-04T09:30:25.098Z,0.50
2023-02-04T09:32:55.087Z,0.50
2023-02-04T09:35:23.593Z,2.30
2023-02-04T09:37:52.115Z,0.57
2023-02-04T09:40:21.847Z,0.60
2023-02-04T09:42:51.047Z,1.17
2023-02-04T09:45:20.394Z,1.57
2023-02-04T09:47:49.026Z,2.77
2023-02-04T09:50:19.986Z,1.53
2023-02-04T09:52:50.927Z,0.90
2023-02-04T09:55:20.862Z,1.67
2023-02-04T09:57:49.442Z,1.10
2023-02-04T10:00:19.527Z,1.23
2023-02-04T10:02:48.215Z,1.77
2023-02-04T10:05:17.365Z,0.50
2023-02-04T10:07:47.847Z,0.60
2023-02-04T10:10:19.381Z,1.80
2023-02-04T10:12:48.542Z,1.77
2023-02-04T10:15:19.573Z,2.00
2023-02-04T10:17:48.606Z,0.60
2023-02-04T10:20:17.249Z,0.50
2023-02-04T10:22:47.728Z,1.93
2023-02-04T10:25:17.999Z,2.20
2023-02-04T10:27:50.679Z,0.50
2023-02-04T10:30:21.360Z,0.80
2023-02-04T10:32:50.239Z,2.97
2023-02-04T10:35:20.260Z,0.70
2023-02-04T10:37:50.592Z,3.80
2023-02-04T10:40:29.487Z,2.07
2023-02-04T10:42:58.055Z,0.73
2023-02-04T10:45:27.995Z,3.57
2023-02-04T10:47:57.180Z,3.33
2023-02-04T10:50:26.729Z,1.97
2023-02-04T10:53:18.382Z,1.43
2023-02-04T10:55:47.479Z,4.30
2023-02-04T10:58:18.922Z,1.50
2023-02-04T11:00:47.594Z,1.63
2023-02-04T11:03:18.426Z,4.73
2023-02-04T11:05:47.028Z,0.60
2023-02-04T11:08:23.046Z,3.73
2023-02-04T11:10:52.931Z,0.63
2023-02-04T11:13:25.715Z,1.50
2023-02-04T11:16:09.421Z,4.70
2023-02-04T11:18:46.181Z,2.10
2023-02-04T11:21:24.298Z,2.87
2023-02-04T11:24:05.101Z,1.97
2023-02-04T11:26:35.322Z,2.30
2023-02-04T11:29:11.657Z,1.00
2023-02-04T11:31:58.139Z,0.87
2023-02-04T11:34:28.530Z,0.70
2023-02-04T11:36:58.458Z,1.13
2023-02-04T11:39:30.311Z,0.73
2023-02-04T11:42:00.472Z,1.47
2023-02-04T11:44:29.288Z,3.23
2023-02-04T11:46:58.690Z,1.17
2023-02-04T11:49:28.547Z,0.70
2023-02-04T11:52:08.713Z,1.63
2023-02-04T11:54:38.914Z,3.27
2023-02-04T11:57:07.845Z,2.47
2023-02-04T11:59:36.602Z,1.27
2023-02-04T12:02:05.878Z,2.27
2023-02-04T12:04:34.393Z,1.33
2023-02-04T12:07:04.000Z,0.63
2023-02-04T12:09:48.587Z,1.00
2023-02-04T12:12:26.435Z,0.57
2023-02-04T12:15:04.480Z,1.43
2023-02-04T12:17:33.286Z,1.33
2023-02-04T12:20:01.805Z,1.10
2023-02-04T12:22:30.449Z,1.30
2023-02-04T12:24:59.014Z,3.00
2023-02-04T12:27:29.012Z,3.63
2023-02-04T12:29:57.573Z,1.40
2023-02-04T12:32:26.201Z,1.40
2023-02-04T12:34:54.775Z,1.30
2023-02-04T12:37:23.393Z,2.17
2023-02-04T12:39:52.007Z,2.10
2023-02-04T12:42:20.624Z,1.03
2023-02-04T12:44:50.638Z,1.00
2023-02-04T12:47:19.104Z,1.80
2023-02-04T12:49:48.492Z,2.03
2023-02-04T12:52:17.117Z,3.77
2023-02-04T12:54:45.731Z,2.40
2023-02-04T12:57:19.733Z,1.77
2023-02-04T12:59:50.515Z,1.90
2023-02-04T13:02:23.475Z,1.03
2023-02-04T13:04:52.141Z,0.70
2023-02-04T13:07:24.507Z,2.60
2023-02-04T13:09:53.340Z,1.33
2023-02-04T13:12:22.090Z,1.43
2023-02-04T13:14:52.195Z,0.83
2023-02-04T13:17:20.899Z,1.90
2023-02-04T13:19:49.589Z,1.37
2023-02-04T13:22:18.255Z,0.70
2023-02-04T13:24:46.780Z,1.27
2023-02-04T13:27:15.530Z,1.13
2023-02-04T13:29:44.936Z,1.50
2023-02-04T13:32:15.113Z,1.53
2023-02-04T13:34:44.168Z,2.10
2023-02-04T13:37:12.775Z,2.20
2023-02-04T13:39:41.471Z,1.60
2023-02-04T13:42:10.097Z,2.47
2023-02-04T13:44:38.684Z,0.90
2023-02-04T13:47:07.334Z,0.87
2023-02-04T13:49:37.507Z,2.30
2023-02-04T13:52:06.254Z,1.67
2023-02-04T13:54:36.710Z,1.13
2023-02-04T13:57:06.392Z,4.63
2023-02-04T13:59:35.024Z,2.63
2023-02-04T14:02:03.736Z,3.07
2023-02-04T14:04:32.328Z,5.30
2023-02-04T14:07:02.411Z,4.33
2023-02-04T14:09:31.078Z,1.77
2023-02-04T14:11:59.805Z,4.17
2023-02-04T14:14:28.516Z,3.60
2023-02-04T14:16:57.366Z,4.33
2023-02-04T14:19:27.785Z,2.50
2023-02-04T14:21:56.442Z,3.77
2023-02-04T14:24:26.655Z,4.13
2023-02-04T14:26:56.281Z,4.07
2023-02-04T14:29:24.980Z,5.90
2023-02-04T14:31:53.738Z,3.57
2023-02-04T14:34:22.349Z,3.53
2023-02-04T14:36:51.072Z,3.17
2023-02-04T14:39:19.767Z,3.20
2023-02-04T14:41:50.013Z,3.30
2023-02-04T14:44:20.994Z,2.50
2023-02-04T14:46:50.236Z,1.57
2023-02-04T14:49:18.975Z,4.77
2023-02-04T14:51:47.825Z,3.87
2023-02-04T14:54:16.533Z,3.30
2023-02-04T14:56:48.005Z,1.10
2023-02-04T14:59:18.033Z,2.50
2023-02-04T15:01:46.921Z,3.20
2023-02-04T15:04:15.900Z,1.07
2023-02-04T15:06:46.208Z,1.50
2023-02-04T15:09:14.869Z,0.87
2023-02-04T15:11:43.470Z,0.70
2023-02-04T15:14:12.095Z,2.17
2023-02-04T15:16:43.502Z,2.20
2023-02-04T15:19:12.128Z,2.37
2023-02-04T15:21:40.828Z,2.10
2023-02-04T15:24:09.301Z,3.03
2023-02-04T15:26:37.942Z,2.83
2023-02-04T15:29:06.732Z,3.43
2023-02-04T15:31:35.431Z,3.20
2023-02-04T15:34:06.269Z,3.43
2023-02-04T15:36:35.048Z,3.23
2023-02-04T15:39:03.704Z,1.80
2023-02-04T15:41:32.288Z,4.03
2023-02-04T15:44:00.861Z,3.03
2023-02-04T15:46:29.585Z,4.93
2023-02-04T15:48:58.142Z,3.97
2023-02-04T15:51:28.073Z,4.33
2023-02-04T15:53:56.674Z,4.30
2023-02-04T15:56:25.256Z,2.83
2023-02-04T15:58:54.847Z,3.40
2023-02-04T16:01:23.468Z,4.13
2023-02-04T16:03:56.436Z,4.57
2023-02-04T16:06:25.302Z,5.10
2023-02-04T16:08:55.310Z,5.53
2023-02-04T16:11:23.935Z,2.00
2023-02-04T16:13:52.500Z,4.73
2023-02-04T16:16:21.116Z,4.50
2023-02-04T16:18:49.840Z,4.77
2023-02-04T16:21:18.586Z,3.43
2023-02-04T16:23:47.489Z,1.80
2023-02-04T16:26:17.510Z,0.70
2023-02-04T16:28:48.063Z,3.23
2023-02-04T16:31:16.954Z,3.97
2023-02-04T16:33:45.642Z,0.80
2023-02-04T16:36:14.324Z,0.97
2023-02-04T16:38:43.938Z,4.27
2023-02-04T16:41:14.363Z,3.40
2023-02-04T16:43:44.484Z,4.73
2023-02-04T16:46:15.162Z,1.67
2023-02-04T16:48:43.813Z,3.87
2023-02-04T16:51:12.351Z,3.43
2023-02-04T16:53:41.020Z,4.13
2023-02-04T16:56:09.581Z,2.37
2023-02-04T16:58:39.990Z,2.57
2023-02-04T17:01:09.942Z,3.53
2023-02-04T17:03:38.499Z,3.30
2023-02-04T17:06:07.300Z,3.93
2023-02-04T17:08:36.026Z,3.13
2023-02-04T17:11:21.873Z,2.77
2023-02-04T17:13:50.482Z,2.70
2023-02-04T17:16:20.439Z,3.63
2023-02-04T17:18:48.992Z,2.80
2023-02-04T17:21:17.544Z,2.70
2023-02-04T17:23:46.445Z,3.23
2023-02-04T17:26:15.124Z,2.03
2023-02-04T17:28:44.061Z,1.53
2023-02-04T17:31:12.757Z,2.03
2023-02-04T17:33:42.921Z,3.57
2023-02-04T17:36:13.779Z,3.37
2023-02-04T17:38:42.392Z,3.47
2023-02-04T17:41:11.009Z,4.40
2023-02-04T17:43:39.590Z,2.33
2023-02-04T17:46:08.241Z,2.87
2023-02-04T17:48:36.840Z,2.17
2023-02-04T17:51:07.709Z,1.27
2023-02-04T17:53:38.691Z,0.70
2023-02-04T17:56:08.892Z,0.73
2023-02-04T17:58:37.792Z,0.90
2023-02-04T18:01:11.228Z,1.90
2023-02-04T18:03:42.153Z,1.23
2023-02-04T18:06:20.309Z,0.60
2023-02-04T18:08:49.272Z,0.50
2023-02-04T18:11:19.725Z,1.67
2023-02-04T18:13:49.651Z,0.50
2023-02-04T18:16:23.543Z,0.40
2023-02-04T18:18:53.637Z,0.73
2023-02-04T18:21:24.824Z,1.53
2023-02-04T18:24:01.102Z,0.50
2023-02-04T18:26:30.203Z,0.60
2023-02-04T18:29:00.541Z,0.50
2023-02-04T18:31:35.455Z,1.00
2023-02-04T18:34:05.282Z,0.60
2023-02-04T18:36:35.384Z,0.87
2023-02-04T18:39:05.689Z,2.53
2023-02-04T18:41:34.500Z,0.60
2023-02-04T18:44:04.199Z,1.00
2023-02-04T18:46:36.865Z,0.50
2023-02-04T18:49:09.122Z,1.63
2023-02-04T18:51:40.431Z,1.53
2023-02-04T18:54:40.416Z,1.83
2023-02-04T18:57:28.829Z,0.93
2023-02-04T19:00:16.390Z,2.43
2023-02-04T19:02:49.596Z,3.23
2023-02-04T19:05:25.244Z,1.53
2023-02-04T19:07:59.163Z,2.20
2023-02-04T19:10:29.499Z,1.20
2023-02-04T19:13:02.636Z,0.93
2023-02-04T19:15:36.447Z,7.00
2023-02-04T19:18:09.426Z,6.43
2023-02-04T19:20:39.561Z,9.23
2023-02-04T19:23:15.700Z,8.37
2023-02-04T19:25:47.372Z,3.53
2023-02-04T19:28:24.429Z,5.23
2023-02-04T19:30:56.924Z,2.00
2023-02-04T19:33:27.664Z,4.43
2023-02-04T19:35:56.364Z,8.27
2023-02-04T19:38:35.499Z,10.27
2023-02-04T19:41:04.195Z,6.90
2023-02-04T19:43:37.399Z,0.80
2023-02-04T19:46:18.541Z,0.80
2023-02-04T19:48:48.270Z,2.20
2023-02-04T19:51:24.467Z,0.80
2023-02-04T19:53:59.196Z,2.93
2023-02-04T19:56:31.227Z,12.23
2023-02-04T19:59:00.722Z,2.00
2023-02-04T20:01:31.089Z,0.83
2023-02-04T20:04:01.309Z,2.13
2023-02-04T20:06:31.569Z,1.97
2023-02-04T20:09:02.758Z,2.30
2023-02-04T20:11:36.367Z,1.53
2023-02-04T20:14:18.376Z,2.90
2023-02-04T20:16:50.030Z,3.40
2023-02-04T20:19:20.767Z,3.23
2023-02-04T20:21:57.840Z,0.80
2023-02-04T20:24:30.510Z,1.07
2023-02-04T20:26:59.297Z,0.50
2023-02-04T20:29:27.936Z,1.70
2023-02-04T20:31:56.717Z,1.37
2023-02-04T20:34:25.887Z,2.20
2023-02-04T20:36:55.695Z,2.00
2023-02-04T20:39:37.106Z,1.20
2023-02-04T20:42:21.093Z,1.93
2023-02-04T20:44:49.853Z,1.57
2023-02-04T20:47:19.731Z,1.43
2023-02-04T20:49:54.171Z,1.97
2023-02-04T20:52:41.573Z,3.07
2023-02-04T20:55:22.814Z,3.43
2023-02-04T20:57:52.107Z,2.47
2023-02-04T21:00:28.380Z,7.83
2023-02-04T21:02:59.800Z,4.53
2023-02-04T21:05:28.576Z,3.40
2023-02-04T21:07:58.524Z,7.70
2023-02-04T21:10:28.578Z,7.03
2023-02-04T21:13:01.354Z,3.77
2023-02-04T21:15:30.185Z,5.87
2023-02-04T21:17:59.071Z,10.63
2023-02-04T21:20:27.886Z,5.80
2023-02-04T21:22:56.769Z,9.93
2023-02-04T21:25:25.483Z,5.27
2023-02-04T21:27:56.601Z,8.00
2023-02-04T21:30:30.083Z,6.07
2023-02-04T21:32:59.167Z,5.27
2023-02-04T21:35:28.083Z,12.23
2023-02-04T21:37:58.840Z,5.20
2023-02-04T21:40:28.156Z,2.93
2023-02-04T21:42:58.310Z,7.83
2023-02-04T21:45:27.457Z,8.27
2023-02-04T21:47:56.349Z,4.23
2023-02-04T21:50:25.140Z,3.67
2023-02-04T21:52:53.986Z,7.67
2023-02-04T21:55:23.057Z,10.90
2023-02-04T21:57:52.158Z,4.53
2023-02-04T22:00:23.980Z,10.63
2023-02-04T22:02:52.883Z,10.70
2023-02-04T22:05:21.829Z,10.53
2023-02-04T22:07:51.242Z,4.97
2023-02-04T22:10:21.091Z,10.40
2023-02-04T22:12:49.892Z,6.97
2023-02-04T22:15:18.912Z,12.37
2023-02-04T22:17:49.357Z,4.47
2023-02-04T22:20:18.533Z,13.37
2023-02-04T22:22:48.785Z,10.90
2023-02-04T22:25:18.531Z,11.83
2023-02-04T22:27:47.663Z,13.27
2023-02-04T22:30:17.601Z,10.10
2023-02-04T22:32:46.517Z,5.13
2023-02-04T22:35:16.821Z,8.50
2023-02-04T22:37:45.615Z,3.87
2023-02-04T22:40:14.459Z,5.30
2023-02-04T22:42:43.244Z,7.17
2023-02-04T22:45:13.040Z,8.67
2023-02-04T22:47:41.779Z,7.30
2023-02-04T22:50:11.050Z,4.47
2023-02-04T22:52:43.753Z,4.47
2023-02-04T22:55:12.639Z,6.37
2023-02-04T22:57:41.376Z,3.17
2023-02-04T23:00:10.944Z,3.33
2023-02-04T23:02:39.652Z,2.17
2023-02-04T23:05:08.647Z,8.20
2023-02-04T23:07:38.157Z,11.77
2023-02-04T23:10:09.017Z,7.03
2023-02-04T23:12:37.714Z,2.60
2023-02-04T23:15:06.774Z,7.30
2023-02-04T23:17:35.633Z,6.73
2023-02-04T23:20:04.314Z,7.73
2023-02-04T23:22:33.103Z,3.57
2023-02-04T23:25:01.935Z,2.47
2023-02-04T23:27:32.146Z,4.20
2023-02-04T23:30:00.894Z,2.83
2023-02-04T23:32:29.969Z,4.83
2023-02-04T23:34:58.713Z,1.73
2023-02-04T23:37:27.420Z,4.10
2023-02-04T23:39:56.107Z,1.83
2023-02-04T23:42:24.867Z,2.60
2023-02-04T23:44:54.895Z,1.27
2023-02-04T23:47:23.480Z,2.00
2023-02-04T23:49:52.103Z,3.57
2023-02-04T23:52:20.686Z,3.10
2023-02-04T23:54:49.396Z,0.80
2023-02-04T23:57:17.948Z,2.40
2023-02-04T23:59:46.511Z,2.20
